createdAt,value
2023-03-13T00:00:58.699Z,7.70
2023-03-13T00:03:26.996Z,7.30
2023-03-13T00:05:57.274Z,7.70
2023-03-13T00:08:25.515Z,8.07
2023-03-13T00:10:53.612Z,8.37
2023-03-13T00:13:22.899Z,7.33
2023-03-13T00:15:50.913Z,6.60
2023-03-13T00:18:18.818Z,7.07
2023-03-13T00:20:48.807Z,7.50
2023-03-13T00:23:16.767Z,6.67
2023-03-13T00:25:44.702Z,6.60
2023-03-13T00:28:12.609Z,6.70
2023-03-13T00:30:42.103Z,7.60
2023-03-13T00:33:10.011Z,6.70
2023-03-13T00:35:37.923Z,7.00
2023-03-13T00:38:05.845Z,6.53
2023-03-13T00:40:33.757Z,7.30
2023-03-13T00:43:01.661Z,7.47
2023-03-13T00:45:29.564Z,6.40
2023-03-13T00:47:58.830Z,7.40
2023-03-13T00:50:26.730Z,6.97
2023-03-13T00:52:54.977Z,7.10
2023-03-13T00:55:22.977Z,7.70
2023-03-13T00:57:50.855Z,7.77
2023-03-13T01:00:19.708Z,7.43
2023-03-13T01:02:47.706Z,7.93
2023-03-13T01:05:17.099Z,7.43
2023-03-13T01:07:44.990Z,8.13
2023-03-13T01:10:13.176Z,7.53
2023-03-13T01:12:42.261Z,7.23
2023-03-13T01:15:11.323Z,8.27
2023-03-13T01:17:39.217Z,8.17
2023-03-13T01:20:08.485Z,8.40
2023-03-13T01:22:37.714Z,7.80
2023-03-13T01:25:06.777Z,8.80
2023-03-13T01:27:34.665Z,8.30
2023-03-13T01:30:02.568Z,8.00
2023-03-13T01:32:30.502Z,8.57
2023-03-13T01:34:58.404Z,8.53
2023-03-13T01:37:26.321Z,8.53
2023-03-13T01:39:55.561Z,8.40
2023-03-13T01:42:23.573Z,8.73
2023-03-13T01:44:53.675Z,8.33
2023-03-13T01:47:21.761Z,9.00
2023-03-13T01:49:51.834Z,8.30
2023-03-13T01:52:24.323Z,8.47
2023-03-13T01:54:57.874Z,9.80
2023-03-13T01:57:30.731Z,7.00
2023-03-13T02:00:02.756Z,8.83
2023-03-13T02:02:31.609Z,8.30
2023-03-13T02:05:03.888Z,7.80
2023-03-13T02:07:39.333Z,8.07
2023-03-13T02:10:11.222Z,7.03
2023-03-13T02:12:40.743Z,8.37
2023-03-13T02:15:12.563Z,7.77
2023-03-13T02:17:41.657Z,8.47
2023-03-13T02:20:11.300Z,6.80
2023-03-13T02:22:45.458Z,7.50
2023-03-13T02:25:23.243Z,7.63
2023-03-13T02:27:55.521Z,7.63
2023-03-13T02:30:24.201Z,7.10
2023-03-13T02:32:52.368Z,7.80
2023-03-13T02:35:22.966Z,6.87
2023-03-13T02:37:54.062Z,7.30
2023-03-13T02:40:26.628Z,6.97
2023-03-13T02:42:57.237Z,6.60
2023-03-13T02:45:25.190Z,6.60
2023-03-13T02:47:53.075Z,7.27
2023-03-13T02:50:21.920Z,6.13
2023-03-13T02:52:51.951Z,6.57
2023-03-13T02:55:25.170Z,6.73
2023-03-13T02:57:53.146Z,6.00
2023-03-13T03:00:26.674Z,6.13
2023-03-13T03:02:55.939Z,6.80
2023-03-13T03:05:23.937Z,7.50
2023-03-13T03:07:52.321Z,6.67
2023-03-13T03:10:20.611Z,5.60
2023-03-13T03:12:48.554Z,6.13
2023-03-13T03:15:16.672Z,7.03
2023-03-13T03:17:45.965Z,6.17
2023-03-13T03:20:13.883Z,6.30
2023-03-13T03:22:41.872Z,5.20
2023-03-13T03:25:10.729Z,5.50
2023-03-13T03:27:38.840Z,6.27
2023-03-13T03:30:08.083Z,6.37
2023-03-13T03:32:36.084Z,5.50
2023-03-13T03:35:06.108Z,6.30
2023-03-13T03:37:34.066Z,6.50
2023-03-13T03:40:01.981Z,5.53
2023-03-13T03:42:29.922Z,5.77
2023-03-13T03:44:57.852Z,6.20
2023-03-13T03:47:25.815Z,6.30
2023-03-13T03:49:53.846Z,5.37
2023-03-13T03:52:23.118Z,5.70
2023-03-13T03:54:51.019Z,5.93
2023-03-13T03:57:18.951Z,5.40
2023-03-13T03:59:46.847Z,5.80
2023-03-13T04:02:14.840Z,6.33
2023-03-13T04:04:42.970Z,5.60
2023-03-13T04:07:10.942Z,7.20
2023-03-13T04:09:40.217Z,6.20
2023-03-13T04:12:09.052Z,6.10
2023-03-13T04:14:36.999Z,5.80
2023-03-13T04:17:05.082Z,5.53
2023-03-13T04:19:33.095Z,6.93
2023-03-13T04:22:01.025Z,6.40
2023-03-13T04:24:28.953Z,5.70
2023-03-13T04:26:58.233Z,5.33
2023-03-13T04:29:26.334Z,6.33
2023-03-13T04:31:54.333Z,6.43
2023-03-13T04:34:22.247Z,6.57
2023-03-13T04:36:50.266Z,6.40
2023-03-13T04:39:18.190Z,6.43
2023-03-13T04:41:46.162Z,6.23
2023-03-13T04:44:15.408Z,5.90
2023-03-13T04:46:43.290Z,5.83
2023-03-13T04:49:11.212Z,5.40
2023-03-13T04:51:39.178Z,5.30
2023-03-13T04:54:07.198Z,5.63
2023-03-13T04:56:43.297Z,5.50
2023-03-13T04:59:12.880Z,5.60
2023-03-13T05:01:43.254Z,5.80
2023-03-13T05:04:11.990Z,5.40
2023-03-13T05:06:40.093Z,5.93
2023-03-13T05:09:08.068Z,6.50
2023-03-13T05:11:36.069Z,5.77
2023-03-13T05:14:04.423Z,6.43
2023-03-13T05:16:32.517Z,5.53
2023-03-13T05:19:01.791Z,7.77
2023-03-13T05:21:29.851Z,5.37
2023-03-13T05:23:57.957Z,5.20
2023-03-13T05:26:26.031Z,5.73
2023-03-13T05:28:53.931Z,6.13
2023-03-13T05:31:22.025Z,5.73
2023-03-13T05:33:49.978Z,5.40
2023-03-13T05:36:19.276Z,5.20
2023-03-13T05:38:47.347Z,5.40
2023-03-13T05:41:15.296Z,5.93
2023-03-13T05:43:43.237Z,5.90
2023-03-13T05:46:11.206Z,4.90
2023-03-13T05:48:39.191Z,5.30
2023-03-13T05:51:07.385Z,4.53
2023-03-13T05:53:36.684Z,5.33
2023-03-13T05:56:05.030Z,4.90
2023-03-13T05:58:32.919Z,4.50
2023-03-13T06:01:00.880Z,4.40
2023-03-13T06:03:28.844Z,3.43
2023-03-13T06:05:59.303Z,3.80
2023-03-13T06:08:27.811Z,4.00
2023-03-13T06:11:00.479Z,3.87
2023-03-13T06:13:28.408Z,3.00
2023-03-13T06:15:58.310Z,3.47
2023-03-13T06:18:27.220Z,3.60
2023-03-13T06:20:58.751Z,3.50
2023-03-13T06:23:26.873Z,3.77
2023-03-13T06:25:56.686Z,3.47
2023-03-13T06:28:24.738Z,3.33
2023-03-13T06:30:52.696Z,2.97
2023-03-13T06:33:20.669Z,2.90
2023-03-13T06:35:56.175Z,2.77
2023-03-13T06:38:25.180Z,2.73
2023-03-13T06:40:53.422Z,2.63
2023-03-13T06:43:23.047Z,1.67
2023-03-13T06:45:51.283Z,1.90
2023-03-13T06:48:19.352Z,1.93
2023-03-13T06:50:47.432Z,1.90
2023-03-13T06:53:17.770Z,2.00
2023-03-13T06:55:46.424Z,2.13
2023-03-13T06:58:29.039Z,1.83
2023-03-13T07:01:00.306Z,1.80
2023-03-13T07:03:28.359Z,2.30
2023-03-13T07:05:59.894Z,1.80
2023-03-13T07:08:28.192Z,2.17
2023-03-13T07:11:00.501Z,2.43
2023-03-13T07:13:28.806Z,2.37
2023-03-13T07:15:57.143Z,2.40
2023-03-13T07:18:26.505Z,2.40
2023-03-13T07:20:55.602Z,2.30
2023-03-13T07:23:23.990Z,2.80
2023-03-13T07:25:55.837Z,2.83
2023-03-13T07:28:23.996Z,3.90
2023-03-13T07:30:51.958Z,2.80
2023-03-13T07:33:20.321Z,3.00
2023-03-13T07:35:53.696Z,2.93
2023-03-13T07:38:21.777Z,3.50
2023-03-13T07:40:50.796Z,3.07
2023-03-13T07:43:19.348Z,3.10
2023-03-13T07:45:55.348Z,3.17
2023-03-13T07:48:24.690Z,3.63
2023-03-13T07:50:56.547Z,3.80
2023-03-13T07:53:25.263Z,3.63
2023-03-13T07:55:54.754Z,3.47
2023-03-13T07:58:22.970Z,4.03
2023-03-13T08:00:51.095Z,4.37
2023-03-13T08:03:19.222Z,4.03
2023-03-13T08:05:47.432Z,3.90
2023-03-13T08:08:16.731Z,4.03
2023-03-13T08:10:45.307Z,4.47
2023-03-13T08:13:13.300Z,4.50
2023-03-13T08:15:41.242Z,4.20
2023-03-13T08:18:09.174Z,4.30
2023-03-13T08:20:37.119Z,4.53
2023-03-13T08:23:05.032Z,4.27
2023-03-13T08:25:34.432Z,4.97
2023-03-13T08:28:02.649Z,4.57
2023-03-13T08:30:30.630Z,4.50
2023-03-13T08:32:58.656Z,4.17
2023-03-13T08:35:26.692Z,4.67
2023-03-13T08:37:54.691Z,4.60
2023-03-13T08:40:22.714Z,4.63
2023-03-13T08:42:52.026Z,4.37
2023-03-13T08:45:19.967Z,3.97
2023-03-13T08:47:47.876Z,3.70
2023-03-13T08:50:16.063Z,4.37
2023-03-13T08:52:45.698Z,4.13
2023-03-13T08:55:13.612Z,4.50
2023-03-13T08:57:41.534Z,4.43
2023-03-13T09:00:13.750Z,4.83
2023-03-13T09:02:41.717Z,4.90
2023-03-13T09:05:09.877Z,5.07
2023-03-13T09:07:38.652Z,5.40
2023-03-13T09:10:07.675Z,5.50
2023-03-13T09:12:35.720Z,5.83
2023-03-13T09:15:03.644Z,5.23
2023-03-13T09:17:32.978Z,5.60
2023-03-13T09:20:01.452Z,5.70
2023-03-13T09:22:29.564Z,5.20
2023-03-13T09:24:57.473Z,6.60
2023-03-13T09:27:25.479Z,6.00
2023-03-13T09:29:53.406Z,6.00
2023-03-13T09:32:21.386Z,5.57
2023-03-13T09:34:50.714Z,5.97
2023-03-13T09:37:18.646Z,6.03
2023-03-13T09:39:46.571Z,5.30
2023-03-13T09:42:19.203Z,5.60
2023-03-13T09:44:51.509Z,6.03
2023-03-13T09:47:24.732Z,6.07
2023-03-13T09:49:58.077Z,6.30
2023-03-13T09:52:27.911Z,6.10
2023-03-13T09:55:00.719Z,5.97
2023-03-13T09:57:34.844Z,5.60
2023-03-13T10:00:08.304Z,5.83
2023-03-13T10:02:37.862Z,6.60
2023-03-13T10:05:16.292Z,6.00
2023-03-13T10:07:44.475Z,6.03
2023-03-13T10:10:16.377Z,6.50
2023-03-13T10:12:47.670Z,5.90
2023-03-13T10:15:35.353Z,5.70
2023-03-13T10:18:14.176Z,5.90
2023-03-13T10:20:44.981Z,6.77
2023-03-13T10:23:17.325Z,6.27
2023-03-13T10:25:45.264Z,5.97
2023-03-13T10:28:14.853Z,6.40
2023-03-13T10:30:48.157Z,5.60
2023-03-13T10:33:25.443Z,6.00
2023-03-13T10:36:05.060Z,5.43
2023-03-13T10:38:35.567Z,5.80
2023-03-13T10:41:10.380Z,5.90
2023-03-13T10:43:51.639Z,4.90
2023-03-13T10:46:26.785Z,5.37
2023-03-13T10:48:56.444Z,5.50
2023-03-13T10:51:31.299Z,4.90
2023-03-13T10:53:59.259Z,4.70
2023-03-13T10:56:31.404Z,4.73
2023-03-13T10:58:59.413Z,5.17
2023-03-13T11:01:31.804Z,4.83
2023-03-13T11:04:00.763Z,4.90
2023-03-13T11:06:32.071Z,5.33
2023-03-13T11:09:02.978Z,5.00
2023-03-13T11:11:31.783Z,5.07
2023-03-13T11:14:10.544Z,5.57
2023-03-13T11:16:46.937Z,5.40
2023-03-13T11:19:35.675Z,4.90
2023-03-13T11:22:21.184Z,4.87
2023-03-13T11:24:56.746Z,5.10
2023-03-13T11:27:30.910Z,5.00
2023-03-13T11:30:20.360Z,4.00
2023-03-13T11:32:53.701Z,4.00
2023-03-13T11:35:46.065Z,3.53
2023-03-13T11:38:21.201Z,3.60
2023-03-13T11:40:55.725Z,3.23
2023-03-13T11:43:42.448Z,2.80
2023-03-13T11:46:24.045Z,3.00
2023-03-13T11:49:33.981Z,2.40
2023-03-13T11:52:12.115Z,2.43
2023-03-13T11:54:58.696Z,2.30
2023-03-13T11:57:30.851Z,2.50
2023-03-13T12:00:18.554Z,2.73
2023-03-13T12:02:51.443Z,2.87
2023-03-13T12:05:21.172Z,2.40
2023-03-13T12:07:55.697Z,2.10
2023-03-13T12:10:30.902Z,2.20
2023-03-13T12:13:05.961Z,2.40
2023-03-13T12:15:38.226Z,3.13
2023-03-13T12:18:13.578Z,2.80
2023-03-13T12:20:47.276Z,2.70
2023-03-13T12:23:20.443Z,2.40
2023-03-13T12:25:53.933Z,2.30
2023-03-13T12:28:33.027Z,2.30
2023-03-13T12:31:10.214Z,2.37
2023-03-13T12:33:44.175Z,2.40
2023-03-13T12:36:18.672Z,2.60
2023-03-13T12:38:53.899Z,2.50
2023-03-13T12:41:26.820Z,2.57
2023-03-13T12:44:09.858Z,2.73
2023-03-13T12:47:08.436Z,2.40
2023-03-13T12:50:02.488Z,2.80
2023-03-13T12:53:06.225Z,2.53
2023-03-13T12:56:03.464Z,2.10
2023-03-13T12:58:42.003Z,2.40
2023-03-13T13:01:17.913Z,2.03
2023-03-13T13:03:53.434Z,1.77
2023-03-13T13:06:21.680Z,1.97
2023-03-13T13:09:03.554Z,2.00
2023-03-13T13:11:49.255Z,1.63
2023-03-13T13:14:59.438Z,1.80
2023-03-13T13:17:59.512Z,1.67
2023-03-13T13:20:37.636Z,1.80
2023-03-13T13:23:33.848Z,1.30
2023-03-13T13:26:47.946Z,1.67
2023-03-13T13:29:55.966Z,1.90
2023-03-13T13:32:43.309Z,1.67
2023-03-13T13:35:26.760Z,1.50
2023-03-13T13:38:15.586Z,1.30
2023-03-13T13:41:00.215Z,1.47
2023-03-13T13:43:32.760Z,2.07
2023-03-13T13:46:05.962Z,1.70
2023-03-13T13:48:37.871Z,1.70
2023-03-13T13:51:26.127Z,1.70
2023-03-13T13:53:56.350Z,1.50
2023-03-13T13:56:45.005Z,1.80
2023-03-13T13:59:44.342Z,2.00
2023-03-13T14:02:24.843Z,1.60
2023-03-13T14:05:04.998Z,2.37
2023-03-13T14:07:45.797Z,1.47
2023-03-13T14:10:29.155Z,1.50
2023-03-13T14:12:58.774Z,1.40
2023-03-13T14:15:28.393Z,1.80
2023-03-13T14:18:00.404Z,1.83
2023-03-13T14:20:33.168Z,1.60
2023-03-13T14:23:03.207Z,1.70
2023-03-13T14:25:43.558Z,1.33
2023-03-13T14:28:20.470Z,2.20
2023-03-13T14:30:50.253Z,1.80
2023-03-13T14:33:18.671Z,2.00
2023-03-13T14:35:49.072Z,1.80
2023-03-13T14:38:19.795Z,1.77
2023-03-13T14:40:48.074Z,1.90
2023-03-13T14:43:23.493Z,1.73
2023-03-13T14:45:52.493Z,1.77
2023-03-13T14:48:28.110Z,1.83
2023-03-13T14:51:14.834Z,1.57
2023-03-13T14:53:55.936Z,2.37
2023-03-13T14:56:33.132Z,1.77
2023-03-13T14:59:26.027Z,2.13
2023-03-13T15:02:00.583Z,2.10
2023-03-13T15:04:52.841Z,2.00
2023-03-13T15:07:23.525Z,1.70
2023-03-13T15:09:52.180Z,1.77
2023-03-13T15:12:23.420Z,1.93
2023-03-13T15:14:52.930Z,2.17
2023-03-13T15:17:22.458Z,2.10
2023-03-13T15:19:53.044Z,2.07
2023-03-13T15:22:28.067Z,2.13
2023-03-13T15:25:06.108Z,1.93
2023-03-13T15:27:35.803Z,2.07
2023-03-13T15:30:04.315Z,1.80
2023-03-13T15:32:35.629Z,2.00
2023-03-13T15:35:04.049Z,1.80
2023-03-13T15:37:35.201Z,2.03
2023-03-13T15:40:07.608Z,2.00
2023-03-13T15:42:35.580Z,1.90
2023-03-13T15:45:03.518Z,1.90
2023-03-13T15:47:31.468Z,1.80
2023-03-13T15:49:59.445Z,2.00
2023-03-13T15:52:27.714Z,1.70
2023-03-13T15:54:57.021Z,2.37
2023-03-13T15:57:27.360Z,2.13
2023-03-13T15:59:55.368Z,1.80
2023-03-13T16:02:24.861Z,1.73
2023-03-13T16:04:53.042Z,2.07
2023-03-13T16:07:22.309Z,1.93
2023-03-13T16:09:50.229Z,2.00
2023-03-13T16:12:19.494Z,1.43
2023-03-13T16:14:47.446Z,2.10
2023-03-13T16:17:17.492Z,1.63
2023-03-13T16:19:46.240Z,1.73
2023-03-13T16:22:14.645Z,1.53
2023-03-13T16:24:43.161Z,1.60
2023-03-13T16:27:15.814Z,1.60
2023-03-13T16:29:45.279Z,1.70
2023-03-13T16:32:14.284Z,1.87
2023-03-13T16:34:42.947Z,1.80
2023-03-13T16:37:15.075Z,1.63
2023-03-13T16:39:43.452Z,1.73
2023-03-13T16:42:11.892Z,1.73
2023-03-13T16:44:40.414Z,1.50
2023-03-13T16:47:21.806Z,1.83
2023-03-13T16:49:49.715Z,1.57
2023-03-13T16:52:18.874Z,1.70
2023-03-13T16:54:47.385Z,1.50
2023-03-13T16:57:18.225Z,1.70
2023-03-13T16:59:46.222Z,1.70
2023-03-13T17:02:17.679Z,2.03
2023-03-13T17:04:46.164Z,1.53
2023-03-13T17:07:19.801Z,1.90
2023-03-13T17:09:48.196Z,1.70
2023-03-13T17:12:16.296Z,1.67
2023-03-13T17:14:44.449Z,1.77
2023-03-13T17:17:14.470Z,1.90
2023-03-13T17:19:43.847Z,1.50
2023-03-13T17:22:13.976Z,1.70
2023-03-13T17:24:42.405Z,1.80
2023-03-13T17:27:14.081Z,1.93
2023-03-13T17:29:42.217Z,1.50
2023-03-13T17:32:11.320Z,1.93
2023-03-13T17:34:39.664Z,2.10
2023-03-13T17:37:17.142Z,1.97
2023-03-13T17:39:45.516Z,1.90
2023-03-13T17:42:14.082Z,1.70
2023-03-13T17:44:42.176Z,1.80
2023-03-13T17:47:16.810Z,1.90
2023-03-13T17:49:45.419Z,2.00
2023-03-13T17:52:16.968Z,1.70
2023-03-13T17:54:45.886Z,2.27
2023-03-13T17:57:19.360Z,2.10
2023-03-13T17:59:47.344Z,1.70
2023-03-13T18:02:18.024Z,1.97
2023-03-13T18:04:46.165Z,2.07
2023-03-13T18:07:18.491Z,2.30
2023-03-13T18:09:47.759Z,1.93
2023-03-13T18:12:16.393Z,2.20
2023-03-13T18:14:44.590Z,4.60
2023-03-13T18:17:16.792Z,2.03
2023-03-13T18:19:45.325Z,1.90
2023-03-13T18:22:17.121Z,2.20
2023-03-13T18:24:45.493Z,2.00
2023-03-13T18:27:14.744Z,2.30
2023-03-13T18:29:43.615Z,1.57
2023-03-13T18:32:13.970Z,1.50
2023-03-13T18:34:42.371Z,2.40
2023-03-13T18:37:21.690Z,1.70
2023-03-13T18:39:51.187Z,1.53
2023-03-13T18:42:19.410Z,1.87
2023-03-13T18:44:47.384Z,1.80
2023-03-13T18:47:17.477Z,2.23
2023-03-13T18:49:45.439Z,1.90
2023-03-13T18:52:13.560Z,1.67
2023-03-13T18:54:44.322Z,1.80
2023-03-13T18:57:14.762Z,1.87
2023-03-13T18:59:42.705Z,2.03
2023-03-13T19:02:14.960Z,2.87
2023-03-13T19:04:43.046Z,1.73
2023-03-13T19:07:16.560Z,1.90
2023-03-13T19:09:47.185Z,2.30
2023-03-13T19:12:16.430Z,1.80
2023-03-13T19:14:44.519Z,2.20
2023-03-13T19:17:18.001Z,1.80
2023-03-13T19:19:45.944Z,2.23
2023-03-13T19:22:14.785Z,1.90
2023-03-13T19:24:42.787Z,2.23
2023-03-13T19:27:16.747Z,2.50
2023-03-13T19:29:45.533Z,1.70
2023-03-13T19:32:15.358Z,2.40
2023-03-13T19:34:43.462Z,2.13
2023-03-13T19:37:12.146Z,2.13
2023-03-13T19:39:40.167Z,2.57
2023-03-13T19:42:08.290Z,2.37
2023-03-13T19:44:38.281Z,1.80
2023-03-13T19:47:06.589Z,2.73
2023-03-13T19:49:34.684Z,1.93
2023-03-13T19:52:02.648Z,1.87
2023-03-13T19:54:30.549Z,2.23
2023-03-13T19:56:58.618Z,2.67
2023-03-13T19:59:27.680Z,2.30
2023-03-13T20:01:57.291Z,2.40
2023-03-13T20:04:25.313Z,2.60
2023-03-13T20:06:53.270Z,2.50
2023-03-13T20:09:21.438Z,2.57
2023-03-13T20:11:49.670Z,2.10
2023-03-13T20:14:17.685Z,2.60
2023-03-13T20:16:48.834Z,2.73
2023-03-13T20:19:18.288Z,2.60
2023-03-13T20:21:46.675Z,2.87
2023-03-13T20:24:14.675Z,2.80
2023-03-13T20:26:42.855Z,3.10
2023-03-13T20:29:10.805Z,2.40
2023-03-13T20:31:38.769Z,2.60
2023-03-13T20:34:06.756Z,3.00
2023-03-13T20:36:36.061Z,3.00
2023-03-13T20:39:05.487Z,2.80
2023-03-13T20:41:33.590Z,2.50
2023-03-13T20:44:01.528Z,2.60
2023-03-13T20:46:29.544Z,2.70
2023-03-13T20:48:59.034Z,2.50
2023-03-13T20:51:27.755Z,2.80
2023-03-13T20:53:57.092Z,2.97
2023-03-13T20:56:25.202Z,2.70
2023-03-13T20:58:53.282Z,3.23
2023-03-13T21:01:22.435Z,2.30
2023-03-13T21:03:50.509Z,2.80
2023-03-13T21:06:19.879Z,2.10
2023-03-13T21:08:48.334Z,2.60
2023-03-13T21:11:20.102Z,2.47
2023-03-13T21:13:48.771Z,2.87
2023-03-13T21:16:18.429Z,2.47
2023-03-13T21:18:46.597Z,2.47
2023-03-13T21:21:17.108Z,2.63
2023-03-13T21:23:45.508Z,2.63
2023-03-13T21:26:14.493Z,2.47
2023-03-13T21:28:43.877Z,2.87
2023-03-13T21:31:13.654Z,3.10
2023-03-13T21:33:42.538Z,2.43
2023-03-13T21:36:11.894Z,3.77
2023-03-13T21:38:39.932Z,2.83
2023-03-13T21:41:12.499Z,2.77
2023-03-13T21:43:41.533Z,2.97
2023-03-13T21:46:11.937Z,2.43
2023-03-13T21:48:40.666Z,2.60
2023-03-13T21:51:09.352Z,2.67
2023-03-13T21:53:38.403Z,2.60
2023-03-13T21:56:07.207Z,2.70
2023-03-13T21:58:35.201Z,2.40
2023-03-13T22:01:03.356Z,2.60
2023-03-13T22:03:32.775Z,2.20
2023-03-13T22:06:00.746Z,2.40
2023-03-13T22:08:28.869Z,2.30
2023-03-13T22:10:58.657Z,2.83
2023-03-13T22:13:26.792Z,2.70
2023-03-13T22:15:54.956Z,3.20
2023-03-13T22:18:22.962Z,3.00
2023-03-13T22:20:52.255Z,2.90
2023-03-13T22:23:20.316Z,2.50
2023-03-13T22:25:48.360Z,2.77
2023-03-13T22:28:16.728Z,2.60
2023-03-13T22:30:45.681Z,2.87
2023-03-13T22:33:13.655Z,2.70
2023-03-13T22:35:42.187Z,2.50
2023-03-13T22:38:11.872Z,2.47
2023-03-13T22:40:39.852Z,2.57
2023-03-13T22:43:07.828Z,2.43
2023-03-13T22:45:36.374Z,2.20
2023-03-13T22:48:06.411Z,2.60
2023-03-13T22:50:34.781Z,2.90
2023-03-13T22:53:02.936Z,2.97
2023-03-13T22:55:33.249Z,2.70
2023-03-13T22:58:01.751Z,2.50
2023-03-13T23:00:29.748Z,2.40
2023-03-13T23:02:57.787Z,3.03
2023-03-13T23:05:25.738Z,3.90
2023-03-13T23:07:53.659Z,2.50
2023-03-13T23:10:21.687Z,3.07
2023-03-13T23:12:50.982Z,2.93
2023-03-13T23:15:19.097Z,2.80
2023-03-13T23:17:47.041Z,2.77
2023-03-13T23:20:16.035Z,2.57
2023-03-13T23:22:45.627Z,3.00
2023-03-13T23:25:14.869Z,2.50
2023-03-13T23:27:43.549Z,2.90
2023-03-13T23:30:15.101Z,3.00
2023-03-13T23:32:44.902Z,3.07
2023-03-13T23:35:13.988Z,3.10
2023-03-13T23:37:41.940Z,3.27
2023-03-13T23:40:11.825Z,3.30
2023-03-13T23:42:39.830Z,3.30
2023-03-13T23:45:09.194Z,3.27
2023-03-13T23:47:42.015Z,3.60
2023-03-13T23:50:11.202Z,3.43
2023-03-13T23:52:39.167Z,3.70
2023-03-13T23:55:08.269Z,3.00
2023-03-13T23:57:37.577Z,2.73
